Aérodrome :
LOGIN :

S'inscrire | Disclaimer

   EN    FR    IT 

 










Légende :    VFR   VFR Marginal   IFR   IFR Intensif   IFR Très Intensif
Visi : 
Plafond : 
>= 8 km
>= 3000ft
5 à 8 km
1000 à 3000 ft
1500m à 5 km
500 à 1000 ft
800 à 1500m
200 à 500 ft
< 800m
< 200 ft
Symboles :   Orages  Brouillard  Fortes neiges  Fortes précipitations  Vent > 20 kt
SIGMETs :   Divers  Orages  Givrage  Turbulence  Onde Orograph.  Cendres Volcan.







- Altitude de l'aérodrome : 1090 ft
- Code IATA : CFE
- Voir les cartes d'approche


LFLC - Clermont-Ferrand Auvergne

DERNIER METAR :
  • 301030Z AUTO 16008KT 130V200 9999 NSC 18/07 Q1024 NOSIG

METARs EXPIRÉS :
  • 301000Z AUTO 16006KT 140V210 9999 NSC 17/07 Q1024 NOSIG
  • 300930Z AUTO 15004KT 100V240 9999 NSC 16/06 Q1024 NOSIG
  • 300900Z AUTO 16004KT 110V230 9999 NSC 15/06 Q1025 NOSIG
  • 300830Z AUTO 17006KT 130V240 9999 NSC 13/06 Q1025 NOSIG
  • 300800Z AUTO 15008KT 120V190 9999 NSC 11/05 Q1025 NOSIG

TAF TAF LFLC
Valide du 30 à 09h jusqu'au 31 à 09h UTC


300800Z 3009/3109 19008KT CAVOK
ATIS : +33 4 73 62 74 38
Pas de NOTAMs connus pour ce terrain.



MET'MAP, la Météo Aéronautique d'un coup d'oeil ! - Copyright ORBIFLY Décembre 2007 - Disclaimer

ORBIFLY MET'MAP TEAM :

Programmation & Développement : Alexandra Zaïnal
Conception & Développement : Baudouin d'Aumeries
Co-Programmation & Développement : Marc-Olivier Méhu
Soutien technique & logistique : Manuel Goepfert

Contact : metmap@orbifly.com




SOURCES & CREDITS :

   NOAA